Time,TemperatureF,DewpointF,PressureIn,WindDirection,WindDirectionDegrees,WindSpeedMPH,WindSpeedGustMPH,Humidity,HourlyPrecipIn,Conditions,Clouds,dailyrainin,SolarRadiationWatts/m^2,SoftwareType,DateUTC
2013-11-09 00:00:00,36.0,30.0,-100.00,SSE,157,3.0,-999.0,76,-99.99,,,-99.99,0.000000,,2013-11-09 05:00:00,
2013-11-09 00:44:00,36.0,30.0,-100.00,SSE,157,3.0,-999.0,76,-99.99,,,-99.99,0.000000,,2013-11-09 05:44:00,
2013-11-09 00:53:00,36.0,30.0,-100.00,SSE,157,3.0,-999.0,76,-99.99,,,-99.99,0.000000,,2013-11-09 05:53:00,
2013-11-09 01:00:00,37.0,31.0,-100.00,SSE,157,4.0,-999.0,77,-99.99,,,-99.99,0.000000,,2013-11-09 06:00:00,
2013-11-09 01:43:00,37.0,31.0,-100.00,SSE,157,4.0,-999.0,77,-99.99,,,-99.99,0.000000,,2013-11-09 06:43:00,
2013-11-09 01:54:00,37.0,31.0,-100.00,SSE,157,4.0,-999.0,77,-99.99,,,-99.99,0.000000,,2013-11-09 06:54:00,
2013-11-09 02:00:00,37.0,31.0,-100.00,SE,135,4.0,-999.0,77,-99.99,,,-99.99,0.000000,,2013-11-09 07:00:00,
2013-11-09 02:42:00,37.0,31.0,-100.00,SE,135,4.0,-999.0,77,-99.99,,,-99.99,0.000000,,2013-11-09 07:42:00,
2013-11-09 02:53:00,37.0,31.0,-100.00,SE,135,4.0,-999.0,77,-99.99,,,-99.99,0.000000,,2013-11-09 07:53:00,
2013-11-09 03:00:00,39.0,31.0,-100.00,SSE,157,6.0,-999.0,73,-99.99,,,-99.99,0.000000,,2013-11-09 08:00:00,
2013-11-09 03:42:00,39.0,31.0,-100.00,SSE,157,6.0,-999.0,73,-99.99,,,-99.99,0.000000,,2013-11-09 08:42:00,
2013-11-09 03:52:00,39.0,31.0,-100.00,SSE,157,6.0,-999.0,73,-99.99,,,-99.99,0.000000,,2013-11-09 08:52:00,
2013-11-09 04:00:00,40.0,31.0,-100.00,SSE,157,6.0,-999.0,70,-99.99,,,-99.99,0.000000,,2013-11-09 09:00:00,
2013-11-09 04:43:00,40.0,31.0,-100.00,SSE,157,6.0,-999.0,70,-99.99,,,-99.99,0.000000,,2013-11-09 09:43:00,
2013-11-09 04:53:00,40.0,31.0,-100.00,SSE,157,6.0,-999.0,70,-99.99,,,-99.99,0.000000,,2013-11-09 09:53:00,
2013-11-09 05:00:00,40.0,31.0,-100.00,SSE,157,6.0,-999.0,70,-99.99,,,-99.99,0.000000,,2013-11-09 10:00:00,
2013-11-09 05:43:00,40.0,31.0,-100.00,SSE,157,6.0,-999.0,70,-99.99,,,-99.99,0.000000,,2013-11-09 10:43:00,
2013-11-09 05:52:00,40.0,31.0,-100.00,SSE,157,6.0,-999.0,70,-99.99,,,-99.99,0.000000,,2013-11-09 10:52:00,
2013-11-09 06:00:00,40.0,31.0,-100.00,SSE,157,5.0,-999.0,68,-99.99,,,-99.99,0.000000,,2013-11-09 11:00:00,
2013-11-09 06:43:00,40.0,31.0,-100.00,SSE,157,5.0,-999.0,68,-99.99,,,-99.99,0.000000,,2013-11-09 11:43:00,
2013-11-09 06:52:00,40.0,31.0,-100.00,SSE,157,5.0,-999.0,68,-99.99,,,-99.99,0.000000,,2013-11-09 11:52:00,
2013-11-09 07:00:00,42.0,31.0,-100.00,South,180,6.0,-999.0,63,-99.99,,,-99.99,0.000000,,2013-11-09 12:00:00,
2013-11-09 07:42:00,42.0,31.0,-100.00,South,180,6.0,-999.0,63,-99.99,,,-99.99,0.000000,,2013-11-09 12:42:00,
2013-11-09 07:52:00,42.0,31.0,-100.00,South,180,6.0,-999.0,63,-99.99,,,-99.99,0.000000,,2013-11-09 12:52:00,
2013-11-09 08:00:00,43.0,31.0,-100.00,SSW,202,6.0,-999.0,63,-99.99,,,-99.99,6.960000,,2013-11-09 13:00:00,
2013-11-09 08:42:00,43.0,31.0,-100.00,SSW,202,6.0,-999.0,63,-99.99,,,-99.99,6.960000,,2013-11-09 13:42:00,
2013-11-09 08:52:00,43.0,31.0,-100.00,SSW,202,6.0,-999.0,63,-99.99,,,-99.99,6.960000,,2013-11-09 13:52:00,
2013-11-09 09:00:00,44.0,32.0,-100.00,South,180,7.0,-999.0,63,-99.99,,,-99.99,82.360001,,2013-11-09 14:00:00,
2013-11-09 09:42:00,44.0,32.0,-100.00,South,180,7.0,-999.0,63,-99.99,,,-99.99,82.360001,,2013-11-09 14:42:00,
2013-11-09 09:52:00,44.0,32.0,-100.00,South,180,7.0,-999.0,63,-99.99,,,-99.99,82.360001,,2013-11-09 14:52:00,
2013-11-09 10:00:00,46.0,35.0,-100.00,SSW,202,7.0,-999.0,65,-99.99,,,-99.99,177.479996,,2013-11-09 15:00:00,
2013-11-09 10:44:00,46.0,35.0,-100.00,SSW,202,7.0,-999.0,65,-99.99,,,-99.99,177.479996,,2013-11-09 15:44:00,
2013-11-09 10:54:00,46.0,35.0,-100.00,SSW,202,7.0,-999.0,65,-99.99,,,-99.99,177.479996,,2013-11-09 15:54:00,
2013-11-09 11:00:00,48.0,38.0,-100.00,SSW,202,8.0,-999.0,69,-99.99,,,-99.99,90.480003,,2013-11-09 16:00:00,
2013-11-09 11:43:00,48.0,38.0,-100.00,SSW,202,8.0,-999.0,69,-99.99,,,-99.99,90.480003,,2013-11-09 16:43:00,
2013-11-09 11:53:00,48.0,38.0,-100.00,SSW,202,8.0,-999.0,69,-99.99,,,-99.99,90.480003,,2013-11-09 16:53:00,
2013-11-09 12:00:00,49.0,40.0,-100.00,SW,225,10.0,-999.0,70,-99.99,,,-99.99,133.399994,,2013-11-09 17:00:00,
2013-11-09 12:44:00,49.0,40.0,-100.00,SW,225,10.0,-999.0,70,-99.99,,,-99.99,133.399994,,2013-11-09 17:44:00,
2013-11-09 12:52:00,49.0,40.0,-100.00,SW,225,10.0,-999.0,70,-99.99,,,-99.99,133.399994,,2013-11-09 17:52:00,
2013-11-09 13:00:00,48.0,40.0,-100.00,WSW,247,13.0,-999.0,73,-99.99,,,-99.99,58.000000,,2013-11-09 18:00:00,
2013-11-09 13:42:00,48.0,40.0,-100.00,WSW,247,13.0,-999.0,73,-99.99,,,-99.99,58.000000,,2013-11-09 18:42:00,
2013-11-09 13:52:00,48.0,40.0,-100.00,WSW,247,13.0,-999.0,73,-99.99,,,-99.99,58.000000,,2013-11-09 18:52:00,
2013-11-09 14:00:00,47.0,39.0,-100.00,WSW,247,11.0,-999.0,76,-99.99,,,-99.99,38.279999,,2013-11-09 19:00:00,
2013-11-09 14:42:00,47.0,39.0,-100.00,WSW,247,11.0,-999.0,76,-99.99,,,-99.99,38.279999,,2013-11-09 19:42:00,
2013-11-09 14:52:00,47.0,39.0,-100.00,WSW,247,11.0,-999.0,76,-99.99,,,-99.99,38.279999,,2013-11-09 19:52:00,
2013-11-09 15:00:00,47.0,39.0,-100.00,WSW,247,11.0,-999.0,74,-99.99,,,-99.99,33.639999,,2013-11-09 20:00:00,
2013-11-09 15:42:00,47.0,39.0,-100.00,WSW,247,11.0,-999.0,74,-99.99,,,-99.99,33.639999,,2013-11-09 20:42:00,
2013-11-09 15:52:00,47.0,39.0,-100.00,WSW,247,11.0,-999.0,74,-99.99,,,-99.99,33.639999,,2013-11-09 20:52:00,
2013-11-09 16:00:00,47.0,39.0,-100.00,WSW,247,11.0,-999.0,72,-99.99,,,-99.99,25.520000,,2013-11-09 21:00:00,
2013-11-09 16:44:00,47.0,39.0,-100.00,WSW,247,11.0,-999.0,72,-99.99,,,-99.99,25.520000,,2013-11-09 21:44:00,
2013-11-09 16:54:00,47.0,39.0,-100.00,WSW,247,11.0,-999.0,72,-99.99,,,-99.99,25.520000,,2013-11-09 21:54:00,
2013-11-09 17:00:00,47.0,38.0,-100.00,WSW,247,9.0,-999.0,70,-99.99,,,-99.99,15.080000,,2013-11-09 22:00:00,
2013-11-09 17:43:00,47.0,38.0,-100.00,WSW,247,9.0,-999.0,70,-99.99,,,-99.99,15.080000,,2013-11-09 22:43:00,
2013-11-09 17:54:00,47.0,38.0,-100.00,WSW,247,9.0,-999.0,70,-99.99,,,-99.99,15.080000,,2013-11-09 22:54:00,
2013-11-09 18:00:00,48.0,38.0,-100.00,West,270,10.0,-999.0,68,-99.99,,,-99.99,1.160000,,2013-11-09 23:00:00,
2013-11-09 18:42:00,48.0,38.0,-100.00,West,270,10.0,-999.0,68,-99.99,,,-99.99,1.160000,,2013-11-09 23:42:00,
2013-11-09 18:53:00,48.0,38.0,-100.00,West,270,10.0,-999.0,68,-99.99,,,-99.99,1.160000,,2013-11-09 23:53:00,
2013-11-09 19:00:00,47.0,39.0,-100.00,West,270,10.0,-999.0,73,-99.99,,,-99.99,0.000000,,2013-11-10 00:00:00,
2013-11-09 19:42:00,47.0,39.0,-100.00,West,270,10.0,-999.0,73,-99.99,,,-99.99,0.000000,,2013-11-10 00:42:00,
2013-11-09 19:52:00,47.0,39.0,-100.00,West,270,10.0,-999.0,73,-99.99,,,-99.99,0.000000,,2013-11-10 00:52:00,
2013-11-09 20:00:00,47.0,38.0,-100.00,West,270,9.0,-999.0,72,-99.99,,,-99.99,0.000000,,2013-11-10 01:00:00,
2013-11-09 20:42:00,47.0,38.0,-100.00,West,270,9.0,-999.0,72,-99.99,,,-99.99,0.000000,,2013-11-10 01:42:00,
2013-11-09 20:52:00,47.0,38.0,-100.00,West,270,9.0,-999.0,72,-99.99,,,-99.99,0.000000,,2013-11-10 01:52:00,
2013-11-09 21:00:00,46.0,35.0,-100.00,West,270,12.0,-999.0,65,-99.99,,,-99.99,0.000000,,2013-11-10 02:00:00,
2013-11-09 21:42:00,46.0,35.0,-100.00,West,270,12.0,-999.0,65,-99.99,,,-99.99,0.000000,,2013-11-10 02:42:00,
2013-11-09 21:52:00,46.0,35.0,-100.00,West,270,12.0,-999.0,65,-99.99,,,-99.99,0.000000,,2013-11-10 02:52:00,
2013-11-09 22:00:00,-999.0,-99.9,-100.00,West,270,12.0,-999.0,-999,-99.99,,,-99.99,,,2013-11-10 03:00:00,
2013-11-09 22:44:00,45.0,33.0,-100.00,West,270,12.0,-999.0,62,-99.99,,,-99.99,0.000000,,2013-11-10 03:44:00,
2013-11-09 22:54:00,45.0,33.0,-100.00,West,270,12.0,-999.0,62,-99.99,,,-99.99,0.000000,,2013-11-10 03:54:00,
2013-11-09 23:00:00,43.0,31.0,-100.00,WNW,292,11.0,-999.0,61,-99.99,,,-99.99,0.000000,,2013-11-10 04:00:00,
2013-11-09 23:43:00,43.0,31.0,-100.00,WNW,292,11.0,-999.0,61,-99.99,,,-99.99,0.000000,,2013-11-10 04:43:00,
2013-11-09 23:52:00,43.0,31.0,-100.00,WNW,292,11.0,-999.0,61,-99.99,,,-99.99,0.000000,,2013-11-10 04:52:00,